createdAt,value
2022-11-05T00:00:15.162Z,34.00
2022-11-05T00:04:55.875Z,27.40
2022-11-05T00:09:16.321Z,30.38
2022-11-05T00:13:36.689Z,33.50
2022-11-05T00:17:38.662Z,26.33
2022-11-05T00:21:59.037Z,20.35
2022-11-05T00:26:06.480Z,28.73
2022-11-05T00:30:09.622Z,30.90
2022-11-05T00:34:11.617Z,32.35
2022-11-05T00:38:13.692Z,33.10
2022-11-05T00:42:34.067Z,36.60
2022-11-05T00:46:36.116Z,25.92
2022-11-05T00:50:37.779Z,29.38
2022-11-05T00:54:39.786Z,34.90
2022-11-05T00:58:41.508Z,32.30
2022-11-05T01:02:43.657Z,33.50
2022-11-05T01:06:45.407Z,27.10
2022-11-05T01:10:56.610Z,36.85
2022-11-05T01:14:58.615Z,32.60
2022-11-05T01:19:01.987Z,27.00
2022-11-05T01:23:05.498Z,28.83
2022-11-05T01:27:10.753Z,28.98
2022-11-05T01:31:12.370Z,30.65
2022-11-05T01:35:16.939Z,28.60
2022-11-05T01:39:18.561Z,29.02
2022-11-05T01:43:23.132Z,30.33
2022-11-05T01:47:32.339Z,26.25
2022-11-05T01:51:34.950Z,30.17
2022-11-05T01:55:41.623Z,33.08
2022-11-05T01:59:48.501Z,27.92
2022-11-05T02:03:55.313Z,33.53
2022-11-05T02:07:57.740Z,28.30
2022-11-05T02:11:59.387Z,33.65
2022-11-05T02:16:29.833Z,29.95
2022-11-05T02:20:45.697Z,36.30
2022-11-05T02:24:59.585Z,26.63
2022-11-05T02:29:16.831Z,26.00
2022-11-05T02:33:41.803Z,35.15
2022-11-05T02:37:57.394Z,33.20
2022-11-05T02:42:30.128Z,32.42
2022-11-05T02:46:56.275Z,32.20
2022-11-05T02:51:10.437Z,37.25
2022-11-05T02:55:23.595Z,37.35
2022-11-05T02:59:25.574Z,33.95
2022-11-05T03:03:43.743Z,30.15
2022-11-05T03:07:56.176Z,41.22
2022-11-05T03:12:18.165Z,29.92
2022-11-05T03:16:40.328Z,38.78
2022-11-05T03:20:59.022Z,49.15
2022-11-05T03:25:08.149Z,39.35
2022-11-05T03:29:16.878Z,37.42
2022-11-05T03:33:23.858Z,38.33
2022-11-05T03:37:28.621Z,39.92
2022-11-05T03:41:32.945Z,34.30
2022-11-05T03:45:41.819Z,35.58
2022-11-05T03:49:50.609Z,32.50
2022-11-05T03:53:57.650Z,36.15
2022-11-05T03:57:59.698Z,37.72
2022-11-05T04:02:02.670Z,39.17
2022-11-05T04:06:24.955Z,45.45
2022-11-05T04:11:04.812Z,43.00
2022-11-05T04:15:07.924Z,39.00
2022-11-05T04:19:09.672Z,42.20
2022-11-05T04:23:30.502Z,43.17
2022-11-05T04:27:32.256Z,49.03
2022-11-05T04:31:34.134Z,37.70
2022-11-05T04:35:46.997Z,39.83
2022-11-05T04:39:49.101Z,39.30
2022-11-05T04:43:50.688Z,39.90
2022-11-05T04:47:52.681Z,41.88
2022-11-05T04:51:54.487Z,47.42
2022-11-05T04:56:09.579Z,39.72
2022-11-05T05:00:11.407Z,46.58
2022-11-05T05:04:14.568Z,46.17
2022-11-05T05:08:16.241Z,51.63
2022-11-05T05:12:18.309Z,51.20
2022-11-05T05:16:25.148Z,51.42
2022-11-05T05:20:45.656Z,57.13
2022-11-05T05:24:52.420Z,45.85
2022-11-05T05:28:54.904Z,54.08
2022-11-05T05:32:56.508Z,47.63
2022-11-05T05:36:58.388Z,50.78
2022-11-05T05:41:00.662Z,51.80
2022-11-05T05:45:02.563Z,50.95
2022-11-05T05:49:07.996Z,58.13
2022-11-05T05:53:14.257Z,50.13
2022-11-05T05:57:15.922Z,45.72
2022-11-05T06:01:19.551Z,50.45
2022-11-05T06:05:21.863Z,54.80
2022-11-05T06:09:23.802Z,55.38
2022-11-05T06:13:26.260Z,48.00
2022-11-05T06:17:28.292Z,50.42
2022-11-05T06:21:30.037Z,49.65
2022-11-05T06:25:34.912Z,48.15
2022-11-05T06:29:38.938Z,49.85
2022-11-05T06:33:41.310Z,52.42
2022-11-05T06:37:43.066Z,56.95
2022-11-05T06:42:12.131Z,50.42
2022-11-05T06:46:07.562Z,53.10
2022-11-05T06:50:09.654Z,58.63
2022-11-05T06:54:11.425Z,56.78
2022-11-05T06:58:14.554Z,46.88
2022-11-05T07:02:17.955Z,54.92
2022-11-05T07:06:20.348Z,59.72
2022-11-05T07:10:22.014Z,50.83
2022-11-05T07:14:23.934Z,61.78
2022-11-05T07:18:25.857Z,56.70
2022-11-05T07:22:27.783Z,46.97
2022-11-05T07:26:34.235Z,46.92
2022-11-05T07:30:37.205Z,50.75
2022-11-05T07:34:38.890Z,39.58
2022-11-05T07:38:40.772Z,45.45
2022-11-05T07:42:47.683Z,47.00
2022-11-05T07:46:50.734Z,48.53
2022-11-05T07:50:53.276Z,54.58
2022-11-05T07:54:55.292Z,51.67
2022-11-05T07:58:56.959Z,47.45
2022-11-05T08:03:07.817Z,54.88
2022-11-05T08:07:11.484Z,45.88
2022-11-05T08:11:13.662Z,51.67
2022-11-05T08:15:15.385Z,50.30
2022-11-05T08:19:17.336Z,59.08
2022-11-05T08:23:18.977Z,44.90
2022-11-05T08:27:20.876Z,51.92
2022-11-05T08:31:22.665Z,46.90
2022-11-05T08:35:26.873Z,51.15
2022-11-05T08:39:28.735Z,48.25
2022-11-05T08:43:30.744Z,48.47
2022-11-05T08:47:32.582Z,43.83
2022-11-05T08:51:34.528Z,46.50
2022-11-05T08:55:36.424Z,46.33
2022-11-05T08:59:38.413Z,45.53
2022-11-05T09:03:40.110Z,57.53
2022-11-05T09:07:42.167Z,51.03
2022-11-05T09:12:10.437Z,46.78
2022-11-05T09:16:06.601Z,49.25
2022-11-05T09:20:11.257Z,47.05
2022-11-05T09:24:13.539Z,46.60
2022-11-05T09:28:20.655Z,57.17
2022-11-05T09:32:23.286Z,55.65
2022-11-05T09:36:24.967Z,56.97
2022-11-05T09:40:31.576Z,53.65
2022-11-05T09:44:44.868Z,62.55
2022-11-05T09:48:53.812Z,48.60
2022-11-05T09:56:57.950Z,51.80
2022-11-05T10:01:00.392Z,56.15
2022-11-05T10:05:11.217Z,58.05
2022-11-05T10:09:40.140Z,66.55
2022-11-05T10:13:52.754Z,61.47
2022-11-05T10:17:59.674Z,85.63
2022-11-05T10:22:10.729Z,62.45
2022-11-05T10:26:15.992Z,74.88
2022-11-05T10:30:18.172Z,58.38
2022-11-05T10:34:22.942Z,57.35
2022-11-05T10:38:25.276Z,54.33
2022-11-05T10:42:36.633Z,55.53
2022-11-05T10:46:46.303Z,60.72
2022-11-05T10:50:48.509Z,59.20
2022-11-05T10:54:53.433Z,55.08
2022-11-05T10:58:58.427Z,64.30
2022-11-05T11:03:05.889Z,64.38
2022-11-05T11:07:21.709Z,67.53
2022-11-05T11:11:40.779Z,63.15
2022-11-05T11:15:42.434Z,70.05
2022-11-05T11:19:45.424Z,64.15
2022-11-05T11:24:04.843Z,65.70
2022-11-05T11:28:17.536Z,65.65
2022-11-05T11:32:21.219Z,73.05
2022-11-05T11:36:34.216Z,68.85
2022-11-05T11:40:38.169Z,73.35
2022-11-05T11:44:47.384Z,69.75
2022-11-05T11:48:49.902Z,71.78
2022-11-05T11:52:52.256Z,68.15
2022-11-05T11:56:53.915Z,64.25
2022-11-05T12:01:07.800Z,65.65
2022-11-05T12:05:18.800Z,75.13
2022-11-05T12:09:44.832Z,73.47
2022-11-05T12:14:09.719Z,75.03
2022-11-05T12:18:31.311Z,82.05
2022-11-05T12:22:54.402Z,83.05
2022-11-05T12:27:19.336Z,86.55
2022-11-05T12:31:35.908Z,77.97
2022-11-05T12:35:56.505Z,89.75
2022-11-05T12:40:34.425Z,90.13
2022-11-05T12:45:00.388Z,75.68
2022-11-05T12:49:07.923Z,85.13
2022-11-05T12:53:13.165Z,145.13
2022-11-05T12:57:16.497Z,118.50
2022-11-05T13:01:25.199Z,97.60
2022-11-05T13:05:41.778Z,108.00
2022-11-05T13:09:55.414Z,94.03
2022-11-05T13:14:06.053Z,96.60
2022-11-05T13:18:16.695Z,87.88
2022-11-05T13:22:38.796Z,104.30
2022-11-05T13:27:18.649Z,113.22
2022-11-05T13:31:27.350Z,97.55
2022-11-05T13:35:35.961Z,89.95
2022-11-05T13:39:49.230Z,89.50
2022-11-05T13:44:09.751Z,99.82
2022-11-05T13:48:29.988Z,103.65
2022-11-05T13:53:10.776Z,90.80
2022-11-05T13:57:39.522Z,100.10
2022-11-05T14:01:53.829Z,98.70
2022-11-05T14:06:07.789Z,85.78
2022-11-05T14:10:32.146Z,96.47
2022-11-05T14:14:44.605Z,90.07
2022-11-05T14:18:52.625Z,93.25
2022-11-05T14:23:23.275Z,94.07
2022-11-05T14:27:25.113Z,109.50
2022-11-05T14:31:54.481Z,91.65
2022-11-05T14:36:20.825Z,95.57
2022-11-05T14:40:22.592Z,96.22
2022-11-05T14:44:26.305Z,88.65
2022-11-05T14:48:37.549Z,101.45
2022-11-05T14:52:50.015Z,97.70
2022-11-05T14:56:56.728Z,100.75
2022-11-05T15:01:01.453Z,113.03
2022-11-05T15:05:31.234Z,112.82
2022-11-05T15:09:52.909Z,104.18
2022-11-05T15:13:54.790Z,109.55
2022-11-05T15:18:23.338Z,111.50
2022-11-05T15:22:30.783Z,117.15
2022-11-05T15:26:50.439Z,96.20
2022-11-05T15:31:19.544Z,102.07
2022-11-05T15:35:29.566Z,101.85
2022-11-05T15:39:33.131Z,106.05
2022-11-05T15:43:35.078Z,86.55
2022-11-05T15:47:36.805Z,93.50
2022-11-05T15:51:38.794Z,90.93
2022-11-05T15:55:54.571Z,90.50
2022-11-05T15:59:56.435Z,99.03
2022-11-05T16:04:15.686Z,101.45
2022-11-05T16:08:27.778Z,115.25
2022-11-05T16:12:34.987Z,113.05
2022-11-05T16:16:37.020Z,95.00
2022-11-05T16:20:38.842Z,111.65
2022-11-05T16:24:41.029Z,98.20
2022-11-05T16:28:50.351Z,110.40
2022-11-05T16:32:53.010Z,100.15
2022-11-05T16:36:57.071Z,101.53
2022-11-05T16:41:00.340Z,109.00
2022-11-05T16:45:02.006Z,115.43
2022-11-05T16:49:04.185Z,123.05
2022-11-05T16:53:06.272Z,104.45
2022-11-05T16:57:23.070Z,109.15
2022-11-05T17:01:25.233Z,115.70
2022-11-05T17:05:30.422Z,125.35
2022-11-05T17:09:32.047Z,119.57
2022-11-05T17:13:34.067Z,118.90
2022-11-05T17:17:35.705Z,133.18
2022-11-05T17:21:37.634Z,157.98
2022-11-05T17:25:40.915Z,135.50
2022-11-05T17:29:43.037Z,137.40
2022-11-05T17:33:44.747Z,142.05
2022-11-05T17:37:46.907Z,155.57
2022-11-05T17:41:48.896Z,145.70
2022-11-05T17:45:52.319Z,156.23
2022-11-05T17:49:53.974Z,136.10
2022-11-05T17:53:56.053Z,144.95
2022-11-05T17:57:57.709Z,134.05
2022-11-05T18:01:59.923Z,133.10
2022-11-05T18:06:02.958Z,135.30
2022-11-05T18:10:05.999Z,150.57
2022-11-05T18:14:08.510Z,148.20
2022-11-05T18:18:10.621Z,210.60
2022-11-05T18:22:12.487Z,281.48
2022-11-05T18:26:16.516Z,217.38
2022-11-05T18:30:18.799Z,171.50
2022-11-05T18:34:20.707Z,176.18
2022-11-05T18:38:22.581Z,215.05
2022-11-05T18:42:25.382Z,186.98
2022-11-05T18:46:55.848Z,161.93
2022-11-05T18:50:49.974Z,200.65
2022-11-05T18:54:51.775Z,190.48
2022-11-05T18:59:14.743Z,203.20
2022-11-05T19:03:15.797Z,198.52
2022-11-05T19:07:19.219Z,196.98
2022-11-05T19:11:23.333Z,132.93
2022-11-05T19:15:25.275Z,114.50
2022-11-05T19:19:27.591Z,143.45
2022-11-05T19:23:30.591Z,104.55
2022-11-05T19:27:32.420Z,98.20
2022-11-05T19:31:35.580Z,91.53
2022-11-05T19:35:41.545Z,93.90
2022-11-05T19:39:43.931Z,85.30
2022-11-05T19:43:45.903Z,74.03
2022-11-05T19:47:47.927Z,66.60
2022-11-05T19:51:49.749Z,65.18
2022-11-05T19:55:51.867Z,69.82
2022-11-05T19:59:53.509Z,59.25
2022-11-05T20:03:57.735Z,55.70
2022-11-05T20:07:59.840Z,65.03
2022-11-05T20:12:01.748Z,51.40
2022-11-05T20:16:04.056Z,50.33
2022-11-05T20:20:07.997Z,56.30
2022-11-05T20:24:11.746Z,53.05
2022-11-05T20:28:14.070Z,47.60
2022-11-05T20:32:15.929Z,44.72
2022-11-05T20:36:23.302Z,45.45
2022-11-05T20:40:25.029Z,54.17
2022-11-05T20:44:27.051Z,53.65
2022-11-05T20:48:33.021Z,51.78
2022-11-05T20:52:34.984Z,47.42
2022-11-05T20:56:36.880Z,49.42
2022-11-05T21:00:39.544Z,46.03
2022-11-05T21:04:41.223Z,54.38
2022-11-05T21:08:43.702Z,47.55
2022-11-05T21:12:45.369Z,57.35
2022-11-05T21:16:47.329Z,55.20
2022-11-05T21:20:49.486Z,56.47
2022-11-05T21:24:51.407Z,54.50
2022-11-05T21:28:53.039Z,58.28
2022-11-05T21:32:55.080Z,57.33
2022-11-05T21:36:56.749Z,57.58
2022-11-05T21:41:02.975Z,54.88
2022-11-05T21:45:05.485Z,51.58
2022-11-05T21:49:07.477Z,66.57
2022-11-05T21:53:32.424Z,60.92
2022-11-05T21:57:52.903Z,63.38
2022-11-05T22:02:01.371Z,56.78
2022-11-05T22:06:03.893Z,65.65
2022-11-05T22:10:13.295Z,63.67
2022-11-05T22:14:17.918Z,59.75
2022-11-05T22:18:19.554Z,58.47
2022-11-05T22:22:21.842Z,67.35
2022-11-05T22:26:23.530Z,60.00
2022-11-05T22:30:27.136Z,66.07
2022-11-05T22:34:28.832Z,72.82
2022-11-05T22:38:31.306Z,58.15
2022-11-05T22:42:33.037Z,64.47
2022-11-05T22:46:35.207Z,62.00
2022-11-05T22:50:36.807Z,61.97
2022-11-05T22:54:39.573Z,64.93
2022-11-05T22:58:42.182Z,60.47
2022-11-05T23:02:44.331Z,71.90
2022-11-05T23:07:04.786Z,61.00
2022-11-05T23:11:34.003Z,60.95
2022-11-05T23:15:54.434Z,56.63
2022-11-05T23:20:14.652Z,65.35
2022-11-05T23:24:16.436Z,54.05
2022-11-05T23:28:21.231Z,59.72
2022-11-05T23:32:25.501Z,56.53
2022-11-05T23:36:46.443Z,54.58
2022-11-05T23:41:06.862Z,71.68
2022-11-05T23:45:27.773Z,59.08
2022-11-05T23:49:29.577Z,64.97
2022-11-05T23:53:33.637Z,55.00
2022-11-05T23:57:35.548Z,63.70
